createdAt,value
2024-05-09T00:00:44.489Z,0.00
2024-05-09T00:01:44.433Z,0.00
2024-05-09T00:02:44.388Z,0.00
2024-05-09T00:03:44.529Z,0.00
2024-05-09T00:04:44.412Z,0.00
2024-05-09T00:05:44.688Z,0.00
2024-05-09T00:06:44.322Z,0.00
2024-05-09T00:07:44.333Z,0.00
2024-05-09T00:08:44.462Z,0.00
2024-05-09T00:09:44.265Z,0.00
2024-05-09T00:10:44.339Z,0.00
2024-05-09T00:11:44.296Z,0.00
2024-05-09T00:12:44.236Z,0.00
2024-05-09T00:13:44.228Z,0.00
2024-05-09T00:14:44.332Z,0.00
2024-05-09T00:15:44.193Z,0.00
2024-05-09T00:16:44.233Z,0.00
2024-05-09T00:17:44.482Z,0.00
2024-05-09T00:18:44.225Z,0.00
2024-05-09T00:19:44.222Z,0.00
2024-05-09T00:20:44.198Z,0.00
2024-05-09T00:21:44.197Z,0.00
2024-05-09T00:22:44.128Z,0.00
2024-05-09T00:23:44.142Z,0.00
2024-05-09T00:24:44.084Z,0.00
2024-05-09T00:25:44.438Z,0.00
2024-05-09T00:26:44.063Z,0.00
2024-05-09T00:27:44.031Z,0.00
2024-05-09T00:28:44.059Z,0.00
2024-05-09T00:29:43.984Z,0.00
2024-05-09T00:30:44.120Z,0.00
2024-05-09T00:31:44.014Z,0.00
2024-05-09T00:32:44.109Z,0.00
2024-05-09T00:33:44.152Z,0.00
2024-05-09T00:34:44.027Z,0.00
2024-05-09T00:35:43.925Z,0.00
2024-05-09T00:36:43.912Z,0.00
2024-05-09T00:37:43.948Z,0.00
2024-05-09T00:38:43.969Z,0.00
2024-05-09T00:39:43.847Z,0.00
2024-05-09T00:40:43.986Z,0.00
2024-05-09T00:41:43.924Z,0.00
2024-05-09T00:42:43.838Z,0.00
2024-05-09T00:43:43.875Z,0.00
2024-05-09T00:44:43.819Z,0.00
2024-05-09T00:45:44.255Z,0.00
2024-05-09T00:46:43.839Z,0.00
2024-05-09T00:47:43.885Z,0.00
2024-05-09T00:48:43.936Z,0.00
2024-05-09T00:49:43.943Z,0.00
2024-05-09T00:50:43.773Z,0.00
2024-05-09T00:51:43.715Z,0.00
2024-05-09T00:52:43.742Z,0.00
2024-05-09T00:53:43.714Z,0.00
2024-05-09T00:54:43.655Z,0.00
2024-05-09T00:55:43.735Z,0.00
2024-05-09T00:56:43.681Z,0.00
2024-05-09T00:57:43.609Z,0.00
2024-05-09T00:58:43.688Z,0.00
2024-05-09T00:59:43.598Z,0.00
2024-05-09T01:00:43.739Z,0.00
2024-05-09T01:01:43.908Z,0.00
2024-05-09T01:02:43.684Z,0.00
2024-05-09T01:03:44.791Z,0.00
2024-05-09T01:04:43.742Z,0.00
2024-05-09T01:05:43.749Z,0.00
2024-05-09T01:06:43.531Z,0.00
2024-05-09T01:07:43.555Z,0.00
2024-05-09T01:08:43.587Z,0.00
2024-05-09T01:09:43.448Z,0.00
2024-05-09T01:10:45.203Z,0.00
2024-05-09T01:11:43.583Z,0.00
2024-05-09T01:12:43.421Z,0.00
2024-05-09T01:13:43.433Z,0.00
2024-05-09T01:14:43.432Z,0.00
2024-05-09T01:15:43.430Z,0.00
2024-05-09T01:16:43.432Z,0.00
2024-05-09T01:17:43.688Z,0.00
2024-05-09T01:18:43.460Z,0.00
2024-05-09T01:19:43.480Z,0.00
2024-05-09T01:20:45.151Z,0.00
2024-05-09T01:21:43.285Z,0.00
2024-05-09T01:22:43.361Z,0.00
2024-05-09T01:23:43.342Z,0.00
2024-05-09T01:24:43.270Z,0.00
2024-05-09T01:25:43.490Z,0.00
2024-05-09T01:26:43.268Z,0.00
2024-05-09T01:27:43.494Z,0.00
2024-05-09T01:28:43.309Z,0.00
2024-05-09T01:29:43.203Z,0.00
2024-05-09T01:30:43.196Z,0.00
2024-05-09T01:31:43.336Z,0.00
2024-05-09T01:32:43.313Z,0.00
2024-05-09T01:33:43.231Z,0.00
2024-05-09T01:34:43.207Z,0.00
2024-05-09T01:35:43.437Z,0.00
2024-05-09T01:36:43.104Z,0.00
2024-05-09T01:37:43.100Z,0.00
2024-05-09T01:38:43.182Z,0.00
2024-05-09T01:39:43.056Z,0.00
2024-05-09T01:40:43.235Z,0.00
2024-05-09T01:41:43.021Z,0.00
2024-05-09T01:42:43.067Z,0.00
2024-05-09T01:43:43.043Z,0.00
2024-05-09T01:44:43.026Z,0.00
2024-05-09T01:45:42.994Z,0.00
2024-05-09T01:46:43.045Z,0.00
2024-05-09T01:47:43.169Z,0.00
2024-05-09T01:48:43.085Z,0.00
2024-05-09T01:49:43.333Z,0.00
2024-05-09T01:50:43.634Z,0.00
2024-05-09T01:51:42.898Z,0.00
2024-05-09T01:52:42.951Z,0.00
2024-05-09T01:53:42.914Z,0.00
2024-05-09T01:54:42.857Z,0.00
2024-05-09T01:55:43.059Z,0.00
2024-05-09T01:56:42.919Z,0.00
2024-05-09T01:57:42.821Z,0.00
2024-05-09T01:58:42.859Z,0.00
2024-05-09T01:59:42.793Z,0.00
2024-05-09T02:00:43.647Z,0.00
2024-05-09T02:01:56.160Z,0.00
2024-05-09T02:02:42.910Z,0.00
2024-05-09T02:03:43.051Z,0.00
2024-05-09T02:04:42.829Z,0.00
2024-05-09T02:05:43.082Z,0.00
2024-05-09T02:06:42.783Z,0.00
2024-05-09T02:07:42.841Z,0.00
2024-05-09T02:08:42.827Z,0.00
2024-05-09T02:09:42.666Z,0.00
2024-05-09T02:10:42.781Z,0.00
2024-05-09T02:11:42.737Z,0.00
2024-05-09T02:12:42.655Z,0.00
2024-05-09T02:13:42.716Z,0.00
2024-05-09T02:14:42.630Z,0.00
2024-05-09T02:15:42.648Z,0.00
2024-05-09T02:16:42.754Z,0.00
2024-05-09T02:17:42.846Z,0.00
2024-05-09T02:18:42.761Z,0.00
2024-05-09T02:19:42.533Z,0.00
2024-05-09T02:20:43.448Z,0.00
2024-05-09T02:21:42.512Z,0.00
2024-05-09T02:22:42.537Z,0.00
2024-05-09T02:23:42.573Z,0.00
2024-05-09T02:24:42.469Z,0.00
2024-05-09T02:25:42.462Z,0.00
2024-05-09T02:26:42.519Z,0.00
2024-05-09T02:27:42.435Z,0.00
2024-05-09T02:28:42.453Z,0.00
2024-05-09T02:29:42.473Z,0.00
2024-05-09T02:30:42.803Z,0.00
2024-05-09T02:31:42.373Z,0.00
2024-05-09T02:32:42.559Z,0.00
2024-05-09T02:33:42.463Z,0.00
2024-05-09T02:34:42.340Z,0.00
2024-05-09T02:35:43.472Z,0.00
2024-05-09T02:36:42.337Z,0.00
2024-05-09T02:37:42.316Z,0.00
2024-05-09T02:38:42.326Z,0.00
2024-05-09T02:39:42.276Z,0.00
2024-05-09T02:40:42.293Z,0.00
2024-05-09T02:41:42.246Z,0.00
2024-05-09T02:42:42.224Z,0.00
2024-05-09T02:43:42.214Z,0.00
2024-05-09T02:44:42.244Z,0.00
2024-05-09T02:45:42.218Z,0.00
2024-05-09T02:46:42.171Z,0.00
2024-05-09T02:47:42.268Z,0.00
2024-05-09T02:48:42.263Z,0.00
2024-05-09T02:49:42.136Z,0.00
2024-05-09T02:50:42.425Z,0.00
2024-05-09T02:51:42.116Z,0.00
2024-05-09T02:52:42.058Z,1.00
2024-05-09T02:53:42.147Z,0.00
2024-05-09T02:54:42.031Z,1.00
2024-05-09T02:55:42.778Z,1.00
2024-05-09T02:56:42.200Z,1.00
2024-05-09T02:57:41.998Z,1.00
2024-05-09T02:58:42.003Z,1.00
2024-05-09T02:59:41.967Z,2.00
2024-05-09T03:00:43.040Z,2.00
2024-05-09T03:01:42.103Z,2.00
2024-05-09T03:02:42.073Z,2.00
2024-05-09T03:03:42.119Z,1.00
2024-05-09T03:04:41.989Z,1.00
2024-05-09T03:05:42.262Z,3.00
2024-05-09T03:06:41.851Z,4.00
2024-05-09T03:07:41.848Z,3.00
2024-05-09T03:08:41.922Z,3.00
2024-05-09T03:09:41.815Z,6.00
2024-05-09T03:10:41.830Z,6.00
2024-05-09T03:11:41.923Z,9.00
2024-05-09T03:12:41.873Z,7.00
2024-05-09T03:13:41.810Z,8.00
2024-05-09T03:14:41.812Z,9.00
2024-05-09T03:15:41.774Z,8.00
2024-05-09T03:16:41.737Z,14.00
2024-05-09T03:17:41.918Z,14.00
2024-05-09T03:18:41.846Z,14.00
2024-05-09T03:19:41.729Z,17.00
2024-05-09T03:20:41.938Z,17.00
2024-05-09T03:21:41.729Z,22.00
2024-05-09T03:22:41.658Z,23.00
2024-05-09T03:23:41.734Z,23.00
2024-05-09T03:24:41.638Z,27.00
2024-05-09T03:25:41.646Z,32.00
2024-05-09T03:26:41.622Z,37.00
2024-05-09T03:27:41.596Z,38.00
2024-05-09T03:28:41.589Z,45.00
2024-05-09T03:29:41.560Z,62.00
2024-05-09T03:30:43.138Z,70.00
2024-05-09T03:31:41.590Z,79.00
2024-05-09T03:32:41.780Z,83.00
2024-05-09T03:33:41.576Z,96.00
2024-05-09T03:34:41.497Z,105.00
2024-05-09T03:35:41.529Z,113.00
2024-05-09T03:36:41.488Z,124.00
2024-05-09T03:37:41.456Z,138.00
2024-05-09T03:38:41.514Z,149.00
2024-05-09T03:39:41.450Z,160.00
2024-05-09T03:40:41.442Z,177.00
2024-05-09T03:41:41.476Z,187.00
2024-05-09T03:42:41.403Z,201.00
2024-05-09T03:43:41.381Z,223.00
2024-05-09T03:44:41.467Z,238.00
2024-05-09T03:45:41.373Z,258.00
2024-05-09T03:46:41.334Z,278.00
2024-05-09T03:47:41.707Z,303.00
2024-05-09T03:48:41.383Z,319.00
2024-05-09T03:49:41.399Z,341.00
2024-05-09T03:50:41.507Z,361.00
2024-05-09T03:51:41.263Z,385.00
2024-05-09T03:52:41.282Z,408.00
2024-05-09T03:53:41.316Z,431.00
2024-05-09T03:54:41.230Z,451.00
2024-05-09T03:55:41.237Z,477.00
2024-05-09T03:56:41.299Z,507.00
2024-05-09T03:57:41.229Z,539.00
2024-05-09T03:58:41.165Z,569.00
2024-05-09T03:59:41.204Z,598.00
2024-05-09T04:00:41.626Z,624.00
2024-05-09T04:01:41.247Z,652.00
2024-05-09T04:02:41.308Z,686.00
2024-05-09T04:03:41.223Z,714.00
2024-05-09T04:04:41.283Z,753.00
2024-05-09T04:05:42.443Z,778.00
2024-05-09T04:06:41.104Z,806.00
2024-05-09T04:07:41.063Z,836.00
2024-05-09T04:08:41.147Z,872.00
2024-05-09T04:09:41.034Z,909.00
2024-05-09T04:10:41.035Z,936.00
2024-05-09T04:11:41.181Z,978.00
2024-05-09T04:12:40.998Z,1017.00
2024-05-09T04:13:40.993Z,1050.00
2024-05-09T04:14:41.089Z,1086.00
2024-05-09T04:15:40.978Z,1121.00
2024-05-09T04:16:40.980Z,1157.00
2024-05-09T04:17:41.183Z,1188.00
2024-05-09T04:18:41.055Z,1223.00
2024-05-09T04:19:40.995Z,1264.00
2024-05-09T04:20:41.518Z,1298.00
2024-05-09T04:21:40.857Z,1335.00
2024-05-09T04:22:40.875Z,1365.00
2024-05-09T04:23:40.919Z,1413.00
2024-05-09T04:24:40.864Z,1455.00
2024-05-09T04:25:40.824Z,1483.00
2024-05-09T04:26:40.891Z,1546.00
2024-05-09T04:27:40.778Z,1584.00
2024-05-09T04:28:40.798Z,1630.00
2024-05-09T04:29:40.812Z,1681.00
2024-05-09T04:30:41.838Z,1709.00
2024-05-09T04:31:40.749Z,1736.00
2024-05-09T04:32:41.047Z,1768.00
2024-05-09T04:33:40.927Z,1799.00
2024-05-09T04:34:40.853Z,1849.00
2024-05-09T04:35:40.774Z,1892.00
2024-05-09T04:36:43.974Z,1936.00
2024-05-09T04:37:40.661Z,1970.00
2024-05-09T04:38:40.731Z,2021.00
2024-05-09T04:39:40.640Z,2047.00
2024-05-09T04:40:40.638Z,2076.00
2024-05-09T04:41:40.657Z,2137.00
2024-05-09T04:42:40.619Z,2189.00
2024-05-09T04:43:40.574Z,2226.00
2024-05-09T04:44:40.660Z,2247.00
2024-05-09T04:45:40.567Z,2290.00
2024-05-09T04:46:40.626Z,2321.00
2024-05-09T04:47:40.772Z,2359.00
2024-05-09T04:48:40.689Z,2388.00
2024-05-09T04:49:40.508Z,2385.00
2024-05-09T04:50:40.740Z,2411.00
2024-05-09T04:51:40.474Z,2491.00
2024-05-09T04:52:40.482Z,2555.00
2024-05-09T04:53:40.483Z,2584.00
2024-05-09T04:54:40.450Z,2613.00
2024-05-09T04:55:40.813Z,2642.00
2024-05-09T04:56:40.506Z,2696.00
2024-05-09T04:57:40.407Z,2703.00
2024-05-09T04:58:40.470Z,2764.00
2024-05-09T04:59:40.439Z,2826.00
2024-05-09T05:00:41.215Z,2884.00
2024-05-09T05:01:40.357Z,2950.00
2024-05-09T05:02:40.504Z,2981.00
2024-05-09T05:03:40.625Z,2996.00
2024-05-09T05:04:40.359Z,3031.00
2024-05-09T05:05:40.731Z,3048.00
2024-05-09T05:06:40.288Z,3024.00
2024-05-09T05:07:40.261Z,3087.00
2024-05-09T05:08:40.358Z,3110.00
2024-05-09T05:09:40.242Z,3134.00
2024-05-09T05:10:40.269Z,3172.00
2024-05-09T05:11:40.316Z,3181.00
2024-05-09T05:12:40.213Z,3216.00
2024-05-09T05:13:41.592Z,3286.00
2024-05-09T05:14:40.358Z,3320.00
2024-05-09T05:15:40.172Z,3343.00
2024-05-09T05:16:40.158Z,3370.00
2024-05-09T05:17:40.327Z,3388.00
2024-05-09T05:18:40.353Z,3420.00
2024-05-09T05:19:40.240Z,3451.00
2024-05-09T05:20:40.184Z,3481.00
2024-05-09T05:21:40.067Z,3479.00
2024-05-09T05:22:40.094Z,3441.00
2024-05-09T05:23:40.078Z,3440.00
2024-05-09T05:24:40.044Z,3396.00
2024-05-09T05:25:40.112Z,3545.00
2024-05-09T05:26:40.307Z,3765.00
2024-05-09T05:27:40.001Z,3824.00
2024-05-09T05:28:39.983Z,3821.00
2024-05-09T05:29:39.986Z,3865.00
2024-05-09T05:30:39.996Z,3883.00
2024-05-09T05:31:39.968Z,3874.00
2024-05-09T05:32:40.134Z,3907.00
2024-05-09T05:33:40.091Z,4005.00
2024-05-09T05:34:39.963Z,3768.00
2024-05-09T05:35:39.999Z,3582.00
2024-05-09T05:36:39.897Z,3696.00
2024-05-09T05:37:39.871Z,3912.00
2024-05-09T05:38:40.073Z,3972.00
2024-05-09T05:39:39.862Z,3938.00
2024-05-09T05:40:40.853Z,4008.00
2024-05-09T05:41:39.863Z,4073.00
2024-05-09T05:42:39.819Z,3951.00
2024-05-09T05:43:39.820Z,4031.00
2024-05-09T05:44:39.940Z,4067.00
2024-05-09T05:45:39.781Z,4093.00
2024-05-09T05:46:39.737Z,4260.00
2024-05-09T05:47:39.931Z,4248.00
2024-05-09T05:48:39.854Z,4251.00
2024-05-09T05:49:39.804Z,4382.00
2024-05-09T05:50:39.931Z,4439.00
2024-05-09T05:51:39.668Z,4455.00
2024-05-09T05:52:39.694Z,4475.00
2024-05-09T05:53:39.805Z,4492.00
2024-05-09T05:54:39.629Z,4552.00
2024-05-09T05:55:39.936Z,4520.00
2024-05-09T05:56:39.707Z,4655.00
2024-05-09T05:57:39.599Z,4280.00
2024-05-09T05:58:39.612Z,4403.00
2024-05-09T05:59:39.593Z,4626.00
2024-05-09T06:00:40.823Z,4500.00
2024-05-09T06:01:39.630Z,4640.00
2024-05-09T06:02:39.754Z,4611.00
2024-05-09T06:03:39.724Z,4597.00
2024-05-09T06:04:39.573Z,4591.00
2024-05-09T06:05:40.557Z,4561.00
2024-05-09T06:06:39.486Z,4573.00
2024-05-09T06:07:39.489Z,4598.00
2024-05-09T06:08:39.565Z,4655.00
2024-05-09T06:09:39.441Z,4658.00
2024-05-09T06:10:41.023Z,4592.00
2024-05-09T06:11:39.475Z,4604.00
2024-05-09T06:12:39.422Z,4595.00
2024-05-09T06:13:39.387Z,4658.00
2024-05-09T06:14:39.459Z,4778.00
2024-05-09T06:15:39.373Z,4764.00
2024-05-09T06:16:39.355Z,4826.00
2024-05-09T06:17:39.459Z,4832.00
2024-05-09T06:18:39.499Z,4869.00
2024-05-09T06:19:39.469Z,4867.00
2024-05-09T06:20:39.665Z,4905.00
2024-05-09T06:21:39.316Z,4938.00
2024-05-09T06:22:39.271Z,4892.00
2024-05-09T06:23:39.398Z,4929.00
2024-05-09T06:24:39.240Z,4930.00
2024-05-09T06:25:39.353Z,4958.00
2024-05-09T06:26:39.339Z,4992.00
2024-05-09T06:27:39.217Z,5018.00
2024-05-09T06:28:39.204Z,5034.00
2024-05-09T06:29:39.263Z,5028.00
2024-05-09T06:30:41.459Z,5059.00
2024-05-09T06:31:39.242Z,5049.00
2024-05-09T06:32:39.392Z,5111.00
2024-05-09T06:33:39.349Z,5109.00
2024-05-09T06:34:39.215Z,5153.00
2024-05-09T06:35:39.260Z,5135.00
2024-05-09T06:36:39.079Z,5143.00
2024-05-09T06:37:39.060Z,5174.00
2024-05-09T06:38:39.305Z,5151.00
2024-05-09T06:39:39.025Z,5151.00
2024-05-09T06:40:40.490Z,5203.00
2024-05-09T06:41:39.060Z,5268.00
2024-05-09T06:42:39.023Z,5305.00
2024-05-09T06:43:39.001Z,5876.00
2024-05-09T06:44:39.040Z,6129.00
2024-05-09T06:45:38.999Z,5942.00
2024-05-09T06:46:39.072Z,6328.00
2024-05-09T06:47:39.199Z,6230.00
2024-05-09T06:48:39.334Z,6058.00
2024-05-09T06:49:38.996Z,6166.00
2024-05-09T06:50:39.940Z,6083.00
2024-05-09T06:51:38.982Z,6008.00
2024-05-09T06:52:38.851Z,5888.00
2024-05-09T06:53:38.950Z,6081.00
2024-05-09T06:54:38.875Z,6169.00
2024-05-09T06:55:38.831Z,6018.00
2024-05-09T06:56:38.883Z,6323.00
2024-05-09T06:57:41.495Z,6593.00
2024-05-09T06:58:38.770Z,6390.00
2024-05-09T06:59:38.833Z,6640.00
2024-05-09T07:00:41.041Z,6569.00
2024-05-09T07:01:38.800Z,6430.00
2024-05-09T07:02:39.012Z,6440.00
2024-05-09T07:03:38.855Z,6580.00
2024-05-09T07:04:38.732Z,5688.00
2024-05-09T07:05:38.777Z,6295.00
2024-05-09T07:06:38.672Z,6560.00
2024-05-09T07:07:38.672Z,6281.00
2024-05-09T07:08:48.014Z,6236.00
2024-05-09T07:09:38.632Z,6525.00
2024-05-09T07:10:39.308Z,6873.00
2024-05-09T07:11:38.653Z,6754.00
2024-05-09T07:12:38.587Z,6564.00
2024-05-09T07:13:38.571Z,6303.00
2024-05-09T07:14:38.844Z,6343.00
2024-05-09T07:15:38.533Z,6678.00
2024-05-09T07:16:39.291Z,6501.00
2024-05-09T07:17:38.704Z,6142.00
2024-05-09T07:18:38.821Z,5852.00
2024-05-09T07:19:38.773Z,5947.00
2024-05-09T07:20:38.588Z,5933.00
2024-05-09T07:21:38.483Z,6170.00
2024-05-09T07:27:43.912Z,6302.00
2024-05-09T07:28:44.995Z,6376.00
2024-05-09T07:29:44.901Z,6454.00
2024-05-09T07:30:44.986Z,6216.00
2024-05-09T07:31:45.013Z,6402.00
2024-05-09T07:32:45.386Z,5802.00
2024-05-09T07:33:45.034Z,6257.00
2024-05-09T07:34:44.982Z,5990.00
2024-05-09T07:35:44.855Z,6242.00
2024-05-09T07:36:44.824Z,6252.00
2024-05-09T07:37:44.854Z,5892.00
2024-05-09T07:38:45.168Z,6498.00
2024-05-09T07:39:44.795Z,6738.00
2024-05-09T07:40:44.854Z,6241.00
2024-05-09T07:41:44.763Z,5787.00
2024-05-09T07:42:44.719Z,5698.00
2024-05-09T07:43:44.733Z,5754.00
2024-05-09T07:44:44.727Z,5748.00
2024-05-09T07:45:51.684Z,5553.00
2024-05-09T07:47:48.437Z,5579.00
2024-05-09T07:51:31.622Z,5674.00
2024-05-09T07:53:37.271Z,5588.00
2024-05-09T07:53:51.386Z,5605.00
2024-05-09T07:54:23.950Z,5524.00
2024-05-09T07:55:23.894Z,5473.00
2024-05-09T07:56:24.574Z,5422.00
2024-05-09T07:57:23.774Z,5470.00
2024-05-09T07:58:23.735Z,5415.00
2024-05-09T07:59:23.677Z,5372.00
2024-05-09T08:00:30.812Z,5405.00
2024-05-09T08:01:23.794Z,5397.00
2024-05-09T08:02:23.829Z,5424.00
2024-05-09T08:03:24.133Z,5423.00
2024-05-09T08:04:25.227Z,5519.00
2024-05-09T08:05:23.674Z,5539.00
2024-05-09T08:06:23.609Z,5419.00
2024-05-09T08:07:24.378Z,5587.00
2024-05-09T08:08:23.600Z,5644.00
2024-05-09T08:09:23.590Z,5631.00
2024-05-09T08:10:28.540Z,5635.00
2024-05-09T08:11:23.563Z,5618.00
2024-05-09T08:12:23.552Z,5603.00
2024-05-09T08:13:24.368Z,5608.00
2024-05-09T08:14:24.394Z,5590.00
2024-05-09T08:15:23.494Z,5562.00
2024-05-09T08:16:23.871Z,5603.00
2024-05-09T08:17:24.420Z,5615.00
2024-05-09T08:18:23.555Z,5683.00
2024-05-09T08:19:24.424Z,5737.00
2024-05-09T08:20:30.923Z,5706.00
2024-05-09T08:21:24.341Z,5712.00
2024-05-09T08:22:23.418Z,5546.00
2024-05-09T08:23:24.356Z,5821.00
2024-05-09T08:24:23.361Z,5875.00
2024-05-09T08:25:23.405Z,5777.00
2024-05-09T08:26:23.330Z,5750.00
2024-05-09T08:27:23.292Z,5939.00
2024-05-09T08:28:23.399Z,5998.00
2024-05-09T08:29:23.282Z,6001.00
2024-05-09T08:30:30.092Z,6020.00
2024-05-09T08:31:23.402Z,5464.00
2024-05-09T08:32:23.400Z,6139.00
2024-05-09T08:33:23.424Z,7235.00
2024-05-09T08:34:23.346Z,6858.00
2024-05-09T08:35:23.275Z,5851.00
2024-05-09T08:36:23.220Z,6001.00
2024-05-09T08:37:26.085Z,6468.00
2024-05-09T08:38:23.154Z,7669.00
2024-05-09T08:39:23.151Z,9472.00
2024-05-09T08:40:30.770Z,8061.00
2024-05-09T08:41:23.129Z,5901.00
2024-05-09T08:42:23.107Z,5707.00
2024-05-09T08:43:23.403Z,5698.00
2024-05-09T08:44:23.070Z,5656.00
2024-05-09T08:45:23.067Z,5507.00
2024-05-09T08:46:23.225Z,5585.00
2024-05-09T08:47:23.163Z,5572.00
2024-05-09T08:48:23.323Z,5560.00
2024-05-09T08:49:23.064Z,5551.00
2024-05-09T08:50:32.016Z,5550.00
2024-05-09T08:51:22.979Z,5564.00
2024-05-09T08:52:23.002Z,5510.00
2024-05-09T08:53:22.981Z,5500.00
2024-05-09T08:54:22.948Z,5493.00
2024-05-09T08:55:22.932Z,5495.00
2024-05-09T08:56:22.911Z,5528.00
2024-05-09T08:57:22.908Z,5531.00
2024-05-09T08:58:23.044Z,5516.00
2024-05-09T08:59:22.860Z,5510.00
2024-05-09T09:00:33.393Z,5498.00
2024-05-09T09:01:22.956Z,5515.00
2024-05-09T09:02:23.043Z,5503.00
2024-05-09T09:03:22.943Z,5550.00
2024-05-09T09:04:23.066Z,5598.00
2024-05-09T09:05:22.899Z,5625.00
2024-05-09T09:06:22.847Z,5575.00
2024-05-09T09:07:22.884Z,5512.00
2024-05-09T09:08:22.763Z,5606.00
2024-05-09T09:09:22.741Z,5687.00
2024-05-09T09:10:29.686Z,5681.00
2024-05-09T09:11:22.727Z,5679.00
2024-05-09T09:12:22.701Z,5663.00
2024-05-09T09:13:22.782Z,5518.00
2024-05-09T09:14:22.691Z,5550.00
2024-05-09T09:15:22.727Z,5632.00
2024-05-09T09:16:22.823Z,5749.00
2024-05-09T09:17:22.732Z,5698.00
2024-05-09T09:18:22.658Z,5787.00
2024-05-09T09:19:22.843Z,5731.00
2024-05-09T09:20:28.775Z,5693.00
2024-05-09T09:21:22.569Z,5616.00
2024-05-09T09:22:22.573Z,5677.00
2024-05-09T09:23:22.558Z,5676.00
2024-05-09T09:24:22.530Z,5736.00
2024-05-09T09:25:22.522Z,5713.00
2024-05-09T09:26:22.509Z,5690.00
2024-05-09T09:27:22.514Z,5646.00
2024-05-09T09:28:22.528Z,5668.00
2024-05-09T09:29:22.500Z,5693.00
2024-05-09T09:30:34.520Z,5719.00
2024-05-09T09:31:22.484Z,5744.00
2024-05-09T09:32:22.471Z,5759.00
2024-05-09T09:33:22.565Z,5758.00
2024-05-09T09:34:22.573Z,5787.00
2024-05-09T09:35:22.481Z,5747.00
2024-05-09T09:36:22.380Z,5699.00
2024-05-09T09:37:22.357Z,5678.00
2024-05-09T09:38:22.378Z,5683.00
2024-05-09T09:39:22.334Z,5727.00
2024-05-09T09:40:25.620Z,5666.00
2024-05-09T09:41:22.338Z,5724.00
2024-05-09T09:42:22.286Z,5739.00
2024-05-09T09:43:22.875Z,5676.00
2024-05-09T09:44:22.325Z,5760.00
2024-05-09T09:45:22.285Z,5809.00
2024-05-09T09:46:22.317Z,5856.00
2024-05-09T09:47:22.318Z,5894.00
2024-05-09T09:48:23.092Z,5880.00
2024-05-09T09:49:22.226Z,5838.00
2024-05-09T09:50:27.924Z,5903.00
2024-05-09T09:51:22.210Z,5885.00
2024-05-09T09:52:22.364Z,5953.00
2024-05-09T09:53:22.186Z,5964.00
2024-05-09T09:54:22.146Z,5889.00
2024-05-09T09:55:22.241Z,5986.00
2024-05-09T09:56:22.136Z,5970.00
2024-05-09T09:57:22.094Z,6021.00
2024-05-09T09:58:22.235Z,5943.00
2024-05-09T09:59:22.083Z,6015.00
2024-05-09T10:00:27.219Z,6025.00
2024-05-09T10:01:22.236Z,6060.00
2024-05-09T10:02:22.177Z,6173.00
2024-05-09T10:03:22.153Z,6007.00
2024-05-09T10:04:22.099Z,6152.00
2024-05-09T10:05:22.213Z,6202.00
2024-05-09T10:06:21.993Z,6182.00
2024-05-09T10:07:22.009Z,6028.00
2024-05-09T10:08:21.958Z,6005.00
2024-05-09T10:09:21.965Z,6058.00
2024-05-09T10:10:29.885Z,6209.00
2024-05-09T10:11:22.020Z,6132.00
2024-05-09T10:12:21.920Z,6298.00
2024-05-09T10:13:22.002Z,5945.00
2024-05-09T10:14:21.859Z,6192.00
2024-05-09T10:15:21.863Z,6180.00
2024-05-09T10:16:22.230Z,6410.00
2024-05-09T10:17:21.870Z,6394.00
2024-05-09T10:18:21.925Z,6345.00
2024-05-09T10:19:21.988Z,6498.00
2024-05-09T10:20:27.671Z,6523.00
2024-05-09T10:21:21.805Z,6498.00
2024-05-09T10:22:21.837Z,6585.00
2024-05-09T10:23:21.779Z,6825.00
2024-05-09T10:24:21.742Z,6785.00
2024-05-09T10:25:21.932Z,6950.00
2024-05-09T10:26:21.715Z,6889.00
2024-05-09T10:27:21.693Z,6996.00
2024-05-09T10:28:21.871Z,6829.00
2024-05-09T10:29:21.670Z,6900.00
2024-05-09T10:30:29.473Z,7101.00
2024-05-09T10:31:21.715Z,7137.00
2024-05-09T10:32:21.681Z,7330.00
2024-05-09T10:33:21.671Z,7342.00
2024-05-09T10:34:21.920Z,7272.00
2024-05-09T10:35:21.613Z,7137.00
2024-05-09T10:36:21.581Z,7005.00
2024-05-09T10:37:21.636Z,6904.00
2024-05-09T10:38:21.570Z,6872.00
2024-05-09T10:39:21.543Z,7002.00
2024-05-09T10:40:26.597Z,6965.00
2024-05-09T10:41:21.527Z,6846.00
2024-05-09T10:42:21.607Z,7037.00
2024-05-09T10:43:21.555Z,7052.00
2024-05-09T10:44:21.477Z,6880.00
2024-05-09T10:45:21.466Z,6978.00
2024-05-09T10:46:21.744Z,6825.00
2024-05-09T10:47:21.498Z,6905.00
2024-05-09T10:48:21.539Z,7219.00
2024-05-09T10:49:21.453Z,7299.00
2024-05-09T10:50:28.148Z,7095.00
2024-05-09T10:51:21.388Z,7163.00
2024-05-09T10:52:21.496Z,7462.00
2024-05-09T10:53:21.424Z,7431.00
2024-05-09T10:54:21.320Z,7187.00
2024-05-09T10:55:21.656Z,7299.00
2024-05-09T10:56:28.808Z,7364.00
2024-05-09T10:57:42.791Z,7352.00
2024-05-09T10:58:25.725Z,7464.00
2024-05-09T11:00:23.214Z,7565.00
2024-05-09T11:01:15.049Z,7464.00
2024-05-09T11:02:15.240Z,7795.00
2024-05-09T11:03:14.967Z,7543.00
2024-05-09T11:04:15.090Z,7379.00
2024-05-09T11:05:15.037Z,7407.00
2024-05-09T11:06:14.928Z,7445.00
2024-05-09T11:07:14.930Z,7336.00
2024-05-09T11:08:14.875Z,7245.00
2024-05-09T11:09:14.872Z,7375.00
2024-05-09T11:10:20.698Z,7519.00
2024-05-09T11:11:14.892Z,7862.00
2024-05-09T11:12:14.871Z,7769.00
2024-05-09T11:13:22.098Z,8003.00
2024-05-09T11:14:14.812Z,8736.00
2024-05-09T11:15:14.800Z,5740.00
2024-05-09T11:16:14.877Z,4938.00
2024-05-09T11:17:14.807Z,1815.00
2024-05-09T11:18:14.784Z,9491.00
2024-05-09T11:19:15.214Z,6516.00
2024-05-09T11:20:22.648Z,3221.00
2024-05-09T11:21:14.722Z,3766.00
2024-05-09T11:22:14.959Z,7820.00
2024-05-09T11:23:14.699Z,8061.00
2024-05-09T11:24:14.683Z,8274.00
2024-05-09T11:25:14.700Z,8362.00
2024-05-09T11:26:14.643Z,8381.00
2024-05-09T11:27:14.636Z,8454.00
2024-05-09T11:28:14.808Z,8396.00
2024-05-09T11:29:17.929Z,8138.00
2024-05-09T11:30:21.287Z,8370.00
2024-05-09T11:31:14.691Z,8578.00
2024-05-09T11:32:14.640Z,8566.00
2024-05-09T11:33:14.632Z,8850.00
2024-05-09T11:34:14.812Z,9014.00
2024-05-09T11:35:14.515Z,9349.00
2024-05-09T11:36:14.529Z,7946.00
2024-05-09T11:37:14.720Z,9178.00
2024-05-09T11:38:14.478Z,10550.00
2024-05-09T11:39:14.546Z,9955.00
2024-05-09T11:40:21.364Z,6407.00
2024-05-09T11:41:14.470Z,5574.00
2024-05-09T11:42:14.439Z,2525.00
2024-05-09T11:43:14.462Z,9359.00
2024-05-09T11:44:15.152Z,9274.00
2024-05-09T11:45:14.402Z,9214.00
2024-05-09T11:46:14.703Z,9822.00
2024-05-09T11:47:14.412Z,9858.00
2024-05-09T11:48:14.420Z,10229.00
2024-05-09T11:49:14.483Z,10304.00
2024-05-09T11:50:22.499Z,9550.00
2024-05-09T11:51:14.310Z,9674.00
2024-05-09T11:52:14.393Z,9785.00
2024-05-09T11:53:14.279Z,9879.00
2024-05-09T11:54:14.287Z,9170.00
2024-05-09T11:55:14.464Z,9049.00
2024-05-09T11:56:14.248Z,9378.00
2024-05-09T11:57:14.216Z,9608.00
2024-05-09T11:58:14.394Z,9642.00
2024-05-09T11:59:15.030Z,9947.00
2024-05-09T12:00:18.267Z,10042.00
2024-05-09T12:01:14.236Z,9944.00
2024-05-09T12:02:14.409Z,9862.00
2024-05-09T12:03:14.201Z,9648.00
2024-05-09T12:04:14.434Z,9499.00
2024-05-09T12:05:14.209Z,9371.00
2024-05-09T12:06:14.138Z,9324.00
2024-05-09T12:07:14.114Z,9513.00
2024-05-09T12:08:14.066Z,10681.00
2024-05-09T12:09:14.064Z,9255.00
2024-05-09T12:10:19.476Z,9766.00
2024-05-09T12:11:14.241Z,10324.00
2024-05-09T12:12:14.004Z,8774.00
2024-05-09T12:13:14.037Z,9524.00
2024-05-09T12:14:14.005Z,9113.00
2024-05-09T12:15:14.039Z,9340.00
2024-05-09T12:16:14.131Z,8971.00
2024-05-09T12:17:14.009Z,9237.00
2024-05-09T12:18:14.693Z,9045.00
2024-05-09T12:19:13.975Z,8673.00
2024-05-09T12:20:21.470Z,9032.00
2024-05-09T12:21:13.906Z,8773.00
2024-05-09T12:22:13.943Z,8698.00
2024-05-09T12:23:13.884Z,10583.00
2024-05-09T12:24:16.980Z,2201.00
2024-05-09T12:25:14.036Z,10845.00
2024-05-09T12:26:13.838Z,7853.00
2024-05-09T12:27:13.824Z,6205.00
2024-05-09T12:28:13.867Z,6007.00
2024-05-09T12:29:13.783Z,6219.00
2024-05-09T12:30:20.791Z,6326.00
2024-05-09T12:31:13.823Z,6383.00
2024-05-09T12:32:13.766Z,6588.00
2024-05-09T12:33:14.201Z,2200.00
2024-05-09T12:34:13.839Z,10712.00
2024-05-09T12:35:13.728Z,6226.00